createdAt,value
2018-02-05T00:00:17.408Z,57.80
2018-02-05T00:02:44.149Z,63.87
2018-02-05T00:05:11.763Z,67.67
2018-02-05T00:07:38.666Z,63.60
2018-02-05T00:10:05.401Z,60.00
2018-02-05T00:12:33.005Z,60.33
2018-02-05T00:15:00.056Z,61.53
2018-02-05T00:17:26.966Z,58.57
2018-02-05T00:19:53.746Z,56.93
2018-02-05T00:22:20.575Z,57.07
2018-02-05T00:24:47.348Z,56.00
2018-02-05T00:27:14.095Z,72.20
2018-02-05T00:29:40.882Z,78.13
2018-02-05T00:32:07.709Z,73.20
2018-02-05T00:34:34.457Z,65.10
2018-02-05T00:37:01.229Z,60.90
2018-02-05T00:39:28.042Z,67.33
2018-02-05T00:41:54.792Z,71.80
2018-02-05T00:44:21.576Z,63.87
2018-02-05T00:46:48.362Z,69.17
2018-02-05T00:49:15.149Z,67.03
2018-02-05T00:51:41.902Z,64.93
2018-02-05T00:54:08.682Z,79.40
2018-02-05T00:56:35.462Z,69.47
2018-02-05T00:59:02.273Z,66.37
2018-02-05T01:01:29.217Z,67.87
2018-02-05T01:03:56.036Z,67.20
2018-02-05T01:06:22.945Z,64.13
2018-02-05T01:08:49.775Z,66.53
2018-02-05T01:11:16.640Z,64.73
2018-02-05T01:13:43.545Z,57.97
2018-02-05T01:16:10.427Z,66.97
2018-02-05T01:18:37.343Z,52.13
2018-02-05T01:21:04.239Z,56.40
2018-02-05T01:23:31.172Z,57.37
2018-02-05T01:25:58.120Z,50.60
2018-02-05T01:28:25.200Z,48.33
2018-02-05T01:30:52.092Z,46.30
2018-02-05T01:33:19.028Z,38.97
2018-02-05T01:35:45.878Z,49.90
2018-02-05T01:38:12.879Z,39.53
2018-02-05T01:40:40.010Z,38.73
2018-02-05T01:43:06.949Z,44.73
2018-02-05T01:45:33.879Z,42.00
2018-02-05T01:48:00.760Z,43.77
2018-02-05T01:50:27.695Z,43.50
2018-02-05T01:52:54.600Z,40.20
2018-02-05T01:55:21.515Z,45.57
2018-02-05T01:57:48.455Z,48.30
2018-02-05T02:00:15.398Z,39.83
2018-02-05T02:02:42.263Z,46.43
2018-02-05T02:05:09.165Z,47.50
2018-02-05T02:07:37.075Z,32.20
2018-02-05T02:10:04.039Z,33.87
2018-02-05T02:12:30.999Z,33.63
2018-02-05T02:14:57.912Z,38.37
2018-02-05T02:17:24.933Z,35.77
2018-02-05T02:19:51.933Z,38.20
2018-02-05T02:22:18.859Z,38.13
2018-02-05T02:24:45.831Z,38.47
2018-02-05T02:27:13.125Z,37.00
2018-02-05T02:29:40.201Z,38.07
2018-02-05T02:32:07.127Z,35.80
2018-02-05T02:34:34.860Z,42.60
2018-02-05T02:37:01.695Z,41.13
2018-02-05T02:39:28.624Z,40.43
2018-02-05T02:41:55.660Z,36.33
2018-02-05T02:44:22.749Z,39.97
2018-02-05T02:46:49.605Z,39.67
2018-02-05T02:49:16.399Z,44.73
2018-02-05T02:51:43.373Z,37.13
2018-02-05T02:54:10.397Z,38.27
2018-02-05T02:56:37.445Z,33.80
2018-02-05T02:59:04.444Z,31.83
2018-02-05T03:01:31.391Z,32.17
2018-02-05T03:03:58.290Z,30.50
2018-02-05T03:06:25.482Z,31.80
2018-02-05T03:08:52.669Z,29.43
2018-02-05T03:11:19.618Z,32.93
2018-02-05T03:13:46.678Z,32.90
2018-02-05T03:16:13.670Z,32.60
2018-02-05T03:18:40.621Z,29.53
2018-02-05T03:21:07.594Z,29.27
2018-02-05T03:23:34.526Z,31.47
2018-02-05T03:26:01.767Z,24.30
2018-02-05T03:28:28.922Z,25.87
2018-02-05T03:30:55.879Z,22.93
2018-02-05T03:33:22.964Z,28.47
2018-02-05T03:35:49.884Z,30.53
2018-02-05T03:38:16.851Z,27.93
2018-02-05T03:40:43.827Z,27.43
2018-02-05T03:43:10.786Z,30.00
2018-02-05T03:45:37.758Z,22.47
2018-02-05T03:48:04.845Z,33.23
2018-02-05T03:50:32.030Z,31.63
2018-02-05T03:52:58.826Z,25.30
2018-02-05T03:55:25.865Z,27.43
2018-02-05T03:57:52.812Z,27.43
2018-02-05T04:00:19.679Z,26.60
2018-02-05T04:02:46.626Z,22.90
2018-02-05T04:05:13.606Z,27.40
2018-02-05T04:07:40.591Z,25.07
2018-02-05T04:10:08.449Z,21.97
2018-02-05T04:12:35.257Z,26.57
2018-02-05T04:15:02.242Z,21.57
2018-02-05T04:17:29.049Z,26.97
2018-02-05T04:19:55.939Z,24.90
2018-02-05T04:22:22.898Z,25.93
2018-02-05T04:24:49.805Z,28.10
2018-02-05T04:27:16.748Z,28.73
2018-02-05T04:29:43.969Z,28.10
2018-02-05T04:32:10.844Z,26.03
2018-02-05T04:34:37.801Z,31.37
2018-02-05T04:37:04.966Z,29.07
2018-02-05T04:39:31.964Z,23.93
2018-02-05T04:41:58.948Z,25.23
2018-02-05T04:44:25.989Z,30.17
2018-02-05T04:46:53.007Z,23.97
2018-02-05T04:49:19.962Z,21.00
2018-02-05T04:51:46.869Z,18.03
2018-02-05T04:54:13.990Z,22.17
2018-02-05T04:56:40.858Z,17.30
2018-02-05T04:59:07.741Z,20.03
2018-02-05T05:01:34.857Z,21.60
2018-02-05T05:04:01.870Z,17.97
2018-02-05T05:06:28.780Z,16.53
2018-02-05T05:08:55.691Z,18.00
2018-02-05T05:11:23.345Z,18.80
2018-02-05T05:13:50.263Z,19.33
2018-02-05T05:16:17.204Z,21.17
2018-02-05T05:18:44.042Z,20.97
2018-02-05T05:21:10.866Z,25.10
2018-02-05T05:23:37.785Z,18.27
2018-02-05T05:26:04.800Z,20.43
2018-02-05T05:28:31.698Z,21.50
2018-02-05T05:30:58.630Z,23.87
2018-02-05T05:33:25.812Z,21.13
2018-02-05T05:35:52.798Z,21.63
2018-02-05T05:38:19.882Z,21.30
2018-02-05T05:40:46.714Z,22.30
2018-02-05T05:43:13.617Z,21.90
2018-02-05T05:45:40.642Z,24.47
2018-02-05T05:48:07.502Z,18.27
2018-02-05T05:50:34.546Z,25.33
2018-02-05T05:53:01.633Z,17.20
2018-02-05T05:55:28.786Z,20.27
2018-02-05T05:57:56.284Z,19.73
2018-02-05T06:00:23.768Z,19.13
2018-02-05T06:02:50.602Z,19.20
2018-02-05T06:05:17.421Z,24.07
2018-02-05T06:07:44.281Z,25.30
2018-02-05T06:10:11.130Z,20.50
2018-02-05T06:12:37.962Z,20.10
2018-02-05T06:15:04.803Z,20.60
2018-02-05T06:17:31.657Z,24.20
2018-02-05T06:19:58.571Z,19.60
2018-02-05T06:22:25.519Z,24.53
2018-02-05T06:24:52.414Z,21.30
2018-02-05T06:27:21.240Z,22.93
2018-02-05T06:29:48.005Z,24.80
2018-02-05T06:32:14.746Z,43.60
2018-02-05T06:34:41.630Z,69.03
2018-02-05T06:37:08.470Z,74.80
2018-02-05T06:39:35.861Z,113.57
2018-02-05T06:42:02.626Z,66.50
2018-02-05T06:44:29.468Z,78.67
2018-02-05T06:46:56.373Z,83.33
2018-02-05T06:49:23.185Z,40.93
2018-02-05T06:51:55.959Z,25.97
2018-02-05T06:54:30.161Z,24.87
2018-02-05T06:56:56.898Z,27.10
2018-02-05T06:59:23.641Z,29.80
2018-02-05T07:01:50.421Z,50.07
2018-02-05T07:04:17.200Z,55.93
2018-02-05T07:06:43.982Z,47.73
2018-02-05T07:09:10.760Z,26.93
2018-02-05T07:11:37.520Z,24.70
2018-02-05T07:14:05.054Z,21.13
2018-02-05T07:16:31.777Z,23.03
2018-02-05T07:18:58.531Z,21.20
2018-02-05T07:21:25.292Z,30.00
2018-02-05T07:23:52.047Z,51.07
2018-02-05T07:26:18.900Z,47.83
2018-02-05T07:28:45.654Z,46.93
2018-02-05T07:31:12.415Z,46.53
2018-02-05T07:33:39.200Z,58.90
2018-02-05T07:36:06.330Z,40.80
2018-02-05T07:38:34.878Z,31.97
2018-02-05T07:41:02.494Z,40.87
2018-02-05T07:43:29.300Z,32.50
2018-02-05T07:45:56.836Z,40.47
2018-02-05T07:48:23.590Z,42.00
2018-02-05T07:50:51.113Z,50.67
2018-02-05T07:53:18.642Z,46.20
2018-02-05T07:55:46.874Z,41.80
2018-02-05T07:58:13.638Z,46.67
2018-02-05T08:00:50.688Z,44.00
2018-02-05T08:03:19.202Z,31.93
2018-02-05T08:05:46.045Z,34.97
2018-02-05T08:08:12.826Z,30.53
2018-02-05T08:10:39.589Z,31.67
2018-02-05T08:13:06.487Z,31.07
2018-02-05T08:15:33.244Z,31.37
2018-02-05T08:18:00.009Z,33.33
2018-02-05T08:20:27.124Z,31.03
2018-02-05T08:22:54.031Z,33.87
2018-02-05T08:25:20.789Z,27.47
2018-02-05T08:27:47.570Z,35.77
2018-02-05T08:30:14.345Z,44.03
2018-02-05T08:32:41.345Z,31.40
2018-02-05T08:35:08.120Z,31.60
2018-02-05T08:37:35.745Z,27.53
2018-02-05T08:40:02.553Z,35.97
2018-02-05T08:42:29.436Z,44.73
2018-02-05T08:44:56.353Z,41.63
2018-02-05T08:47:23.105Z,38.33
2018-02-05T08:49:49.898Z,40.87
2018-02-05T08:52:16.654Z,37.67
2018-02-05T08:54:43.550Z,35.50
2018-02-05T08:57:11.189Z,33.60
2018-02-05T08:59:37.950Z,29.23
2018-02-05T09:02:06.009Z,35.53
2018-02-05T09:04:32.799Z,49.10
2018-02-05T09:06:59.700Z,40.57
2018-02-05T09:09:26.513Z,22.07
2018-02-05T09:11:53.269Z,32.40
2018-02-05T09:14:29.982Z,27.87
2018-02-05T09:16:56.817Z,40.33
2018-02-05T09:19:23.592Z,34.87
2018-02-05T09:21:50.382Z,45.60
2018-02-05T09:24:17.138Z,29.93
2018-02-05T09:26:43.952Z,22.93
2018-02-05T09:29:10.685Z,29.30
2018-02-05T09:31:37.452Z,24.40
2018-02-05T09:34:04.318Z,25.17
2018-02-05T09:36:31.070Z,19.93
2018-02-05T09:38:58.716Z,11.70
2018-02-05T09:41:25.440Z,10.30
2018-02-05T09:43:52.193Z,11.47
2018-02-05T09:46:18.983Z,10.10
2018-02-05T09:48:45.785Z,10.83
2018-02-05T09:51:12.527Z,14.33
2018-02-05T09:53:39.375Z,21.07
2018-02-05T09:56:06.154Z,14.07
2018-02-05T09:58:32.900Z,12.00
2018-02-05T10:00:59.726Z,11.70
2018-02-05T10:03:26.531Z,8.63
2018-02-05T10:05:54.354Z,8.80
2018-02-05T10:08:21.195Z,11.37
2018-02-05T10:10:48.087Z,14.70
2018-02-05T10:13:15.587Z,9.33
2018-02-05T10:15:48.475Z,12.93
2018-02-05T10:18:15.248Z,14.33
2018-02-05T10:20:42.105Z,11.17
2018-02-05T10:23:08.862Z,14.43
2018-02-05T10:25:35.648Z,15.67
2018-02-05T10:28:02.432Z,18.37
2018-02-05T10:30:29.182Z,16.50
2018-02-05T10:32:55.925Z,37.23
2018-02-05T10:35:22.822Z,18.40
2018-02-05T10:37:50.402Z,14.73
2018-02-05T10:40:17.165Z,15.03
2018-02-05T10:42:43.965Z,12.83
2018-02-05T10:45:10.750Z,10.27
2018-02-05T10:47:37.498Z,12.73
2018-02-05T10:50:04.443Z,11.67
2018-02-05T10:52:31.836Z,17.37
2018-02-05T10:54:58.617Z,26.70
2018-02-05T10:57:25.395Z,17.33
2018-02-05T10:59:53.510Z,17.97
2018-02-05T11:02:20.263Z,13.47
2018-02-05T11:04:46.993Z,12.80
2018-02-05T11:07:13.746Z,14.50
2018-02-05T11:09:40.501Z,12.50
2018-02-05T11:12:07.281Z,12.23
2018-02-05T11:14:34.070Z,13.77
2018-02-05T11:17:00.858Z,10.50
2018-02-05T11:19:27.603Z,8.93
2018-02-05T11:21:54.361Z,6.10
2018-02-05T11:24:21.121Z,13.53
2018-02-05T11:26:47.866Z,8.13
2018-02-05T11:29:14.631Z,10.13
2018-02-05T11:31:41.401Z,11.20
2018-02-05T11:34:08.146Z,11.67
2018-02-05T11:36:34.887Z,18.10
2018-02-05T11:39:01.626Z,13.47
2018-02-05T11:41:29.165Z,19.70
2018-02-05T11:44:05.981Z,10.37
2018-02-05T11:46:33.198Z,15.23
2018-02-05T11:49:00.165Z,16.40
2018-02-05T11:51:27.222Z,17.00
2018-02-05T11:53:54.293Z,11.63
2018-02-05T11:56:21.226Z,18.47
2018-02-05T11:58:48.065Z,4.93
2018-02-05T12:01:14.895Z,11.67
2018-02-05T12:03:41.704Z,6.73
2018-02-05T12:06:08.690Z,11.37
2018-02-05T12:08:36.356Z,8.40
2018-02-05T12:11:03.588Z,11.47
2018-02-05T12:13:31.022Z,7.27
2018-02-05T12:15:57.817Z,15.27
2018-02-05T12:18:24.690Z,8.80
2018-02-05T12:20:51.544Z,9.57
2018-02-05T12:23:18.340Z,12.53
2018-02-05T12:25:45.139Z,7.40
2018-02-05T12:28:12.186Z,12.27
2018-02-05T12:30:39.623Z,12.50
2018-02-05T12:33:06.519Z,8.93
2018-02-05T12:35:33.526Z,15.17
2018-02-05T12:38:00.926Z,20.73
2018-02-05T12:40:27.734Z,14.57
2018-02-05T12:42:54.939Z,11.07
2018-02-05T12:45:21.884Z,11.30
2018-02-05T12:47:48.735Z,18.27
2018-02-05T12:50:15.497Z,10.57
2018-02-05T12:52:42.288Z,14.17
2018-02-05T12:55:09.110Z,10.93
2018-02-05T12:57:36.841Z,11.17
2018-02-05T13:00:22.434Z,8.87
2018-02-05T13:02:50.241Z,12.20
2018-02-05T13:05:20.649Z,8.87
2018-02-05T13:07:47.387Z,5.37
2018-02-05T13:10:14.323Z,7.90
2018-02-05T13:12:42.054Z,12.87
2018-02-05T13:15:09.125Z,11.20
2018-02-05T13:17:36.041Z,7.97
2018-02-05T13:20:02.802Z,18.87
2018-02-05T13:22:29.762Z,14.30
2018-02-05T13:24:56.631Z,6.73
2018-02-05T13:27:23.418Z,5.63
2018-02-05T13:29:50.187Z,13.67
2018-02-05T13:32:16.982Z,8.20
2018-02-05T13:34:43.746Z,6.47
2018-02-05T13:37:10.501Z,3.73
2018-02-05T13:39:38.054Z,6.53
2018-02-05T13:42:05.075Z,4.10
2018-02-05T13:44:32.315Z,3.67
2018-02-05T13:46:59.066Z,9.27
2018-02-05T13:49:25.832Z,10.97
2018-02-05T13:51:52.629Z,7.53
2018-02-05T13:54:19.702Z,6.50
2018-02-05T13:56:47.197Z,12.53
2018-02-05T13:59:14.231Z,6.87
2018-02-05T14:01:42.465Z,6.43
2018-02-05T14:04:10.245Z,7.13
2018-02-05T14:06:38.120Z,22.20
2018-02-05T14:09:05.551Z,13.97
2018-02-05T14:11:33.854Z,20.80
2018-02-05T14:14:00.667Z,10.50
2018-02-05T14:16:27.436Z,11.07
2018-02-05T14:19:00.058Z,10.37
2018-02-05T14:21:26.818Z,11.77
2018-02-05T14:23:53.570Z,14.33
2018-02-05T14:26:20.315Z,18.50
2018-02-05T14:28:47.113Z,14.30
2018-02-05T14:31:13.866Z,14.47
2018-02-05T14:33:40.661Z,11.00
2018-02-05T14:36:07.399Z,6.97
2018-02-05T14:38:34.250Z,4.73
2018-02-05T14:41:01.008Z,14.30
2018-02-05T14:43:27.788Z,9.13
2018-02-05T14:45:54.575Z,22.53
2018-02-05T14:48:21.321Z,17.43
2018-02-05T14:50:48.113Z,30.23
2018-02-05T14:53:14.940Z,25.63
2018-02-05T14:55:41.697Z,19.43
2018-02-05T14:58:09.837Z,11.00
2018-02-05T15:00:36.606Z,19.53
2018-02-05T15:03:06.698Z,21.50
2018-02-05T15:05:37.422Z,11.67
2018-02-05T15:08:04.230Z,35.63
2018-02-05T15:10:31.009Z,35.87
2018-02-05T15:12:57.784Z,48.57
2018-02-05T15:15:24.602Z,16.83
2018-02-05T15:17:51.370Z,71.90
2018-02-05T15:20:18.119Z,11.60
2018-02-05T15:22:44.873Z,9.27
2018-02-05T15:25:11.793Z,24.83
2018-02-05T15:27:38.645Z,21.50
2018-02-05T15:30:05.518Z,5.50
2018-02-05T15:32:32.274Z,12.47
2018-02-05T15:34:59.097Z,13.50
2018-02-05T15:37:26.014Z,11.60
2018-02-05T15:39:52.765Z,15.07
2018-02-05T15:42:19.584Z,7.13
2018-02-05T15:44:46.366Z,9.33
2018-02-05T15:47:15.013Z,20.77
2018-02-05T15:49:41.912Z,27.20
2018-02-05T15:52:08.679Z,31.40
2018-02-05T15:54:36.510Z,19.47
2018-02-05T15:57:03.330Z,28.93
2018-02-05T15:59:30.230Z,33.83
2018-02-05T16:01:58.921Z,40.97
2018-02-05T16:07:16.325Z,22.63
2018-02-05T16:09:43.537Z,23.60
2018-02-05T16:12:10.736Z,19.00
2018-02-05T16:14:38.188Z,17.13
2018-02-05T16:17:05.134Z,24.53
2018-02-05T16:19:35.902Z,31.17
2018-02-05T16:22:02.694Z,30.87
2018-02-05T16:24:29.509Z,28.03
2018-02-05T16:26:57.171Z,28.93
2018-02-05T16:29:24.233Z,48.63
2018-02-05T16:31:51.013Z,44.10
2018-02-05T16:34:17.838Z,53.70
2018-02-05T16:36:44.917Z,52.27
2018-02-05T16:39:11.881Z,62.73
2018-02-05T16:41:38.681Z,56.57
2018-02-05T16:44:07.902Z,45.00
2018-02-05T16:46:34.695Z,24.90
2018-02-05T16:49:01.486Z,46.70
2018-02-05T16:51:28.422Z,46.00
2018-02-05T16:53:55.314Z,43.70
2018-02-05T16:56:22.252Z,55.20
2018-02-05T16:58:49.052Z,50.53
2018-02-05T17:01:15.844Z,56.93
2018-02-05T17:03:42.604Z,68.33
2018-02-05T17:06:09.370Z,75.97
2018-02-05T17:08:36.132Z,74.50
2018-02-05T17:11:02.884Z,87.47
2018-02-05T17:13:29.675Z,80.97
2018-02-05T17:15:56.489Z,86.63
2018-02-05T17:18:23.294Z,85.53
2018-02-05T17:20:50.557Z,72.37
2018-02-05T17:23:29.665Z,57.90
2018-02-05T17:25:56.497Z,77.70
2018-02-05T17:28:23.282Z,85.67
2018-02-05T17:30:50.040Z,100.07
2018-02-05T17:33:16.822Z,105.87
2018-02-05T17:35:43.601Z,157.43
2018-02-05T17:40:54.180Z,148.07
2018-02-05T17:43:20.952Z,139.60
2018-02-05T17:45:49.336Z,54.70
2018-02-05T17:48:16.323Z,98.40
2018-02-05T17:50:43.085Z,66.93
2018-02-05T17:53:09.862Z,48.90
2018-02-05T17:55:36.692Z,41.17
2018-02-05T17:58:03.437Z,47.30
2018-02-05T18:00:30.203Z,45.70
2018-02-05T18:02:57.065Z,54.70
2018-02-05T18:05:23.862Z,89.20
2018-02-05T18:07:50.653Z,113.83
2018-02-05T18:10:17.445Z,169.50
2018-02-05T18:12:44.227Z,165.10
2018-02-05T18:15:11.024Z,87.53
2018-02-05T18:17:37.797Z,110.70
2018-02-05T18:20:04.553Z,78.63
2018-02-05T18:22:31.322Z,56.40
2018-02-05T18:24:58.104Z,102.67
2018-02-05T18:27:24.994Z,193.47
2018-02-05T18:29:51.736Z,60.80
2018-02-05T18:32:28.427Z,50.30
2018-02-05T18:34:55.195Z,70.63
2018-02-05T18:37:21.986Z,215.97
2018-02-05T18:39:48.779Z,43.53
2018-02-05T18:42:15.565Z,58.87
2018-02-05T18:44:42.364Z,91.40
2018-02-05T18:47:09.114Z,77.43
2018-02-05T18:49:36.307Z,98.27
2018-02-05T18:52:03.081Z,90.50
2018-02-05T18:54:31.109Z,100.13
2018-02-05T18:56:58.148Z,84.13
2018-02-05T18:59:25.194Z,77.23
2018-02-05T19:01:57.963Z,121.43
2018-02-05T19:04:25.655Z,76.43
2018-02-05T19:06:52.624Z,46.60
2018-02-05T19:09:19.762Z,40.83
2018-02-05T19:11:46.770Z,53.67
2018-02-05T19:14:14.436Z,39.73
2018-02-05T19:16:41.189Z,34.57
2018-02-05T19:19:08.845Z,46.37
2018-02-05T19:21:38.957Z,47.27
2018-02-05T19:24:05.738Z,66.10
2018-02-05T19:26:33.270Z,51.50
2018-02-05T19:29:00.085Z,58.20
2018-02-05T19:31:28.533Z,48.43
2018-02-05T19:33:58.562Z,54.17
2018-02-05T19:36:25.476Z,51.77
2018-02-05T19:38:52.257Z,73.87
2018-02-05T19:41:19.780Z,83.27
2018-02-05T19:43:46.570Z,75.50
2018-02-05T19:46:13.343Z,61.00
2018-02-05T19:48:40.642Z,70.80
2018-02-05T19:51:07.609Z,83.63
2018-02-05T19:53:34.355Z,62.77
2018-02-05T19:56:01.138Z,51.20
2018-02-05T19:58:28.055Z,50.03
2018-02-05T20:00:55.273Z,61.30
2018-02-05T20:03:22.166Z,59.57
2018-02-05T20:05:49.013Z,60.13
2018-02-05T20:08:15.765Z,55.47
2018-02-05T20:10:42.516Z,62.77
2018-02-05T20:13:09.335Z,63.40
2018-02-05T20:15:36.151Z,94.47
2018-02-05T20:18:02.917Z,70.53
2018-02-05T20:20:29.864Z,79.90
2018-02-05T20:22:56.662Z,70.93
2018-02-05T20:25:23.772Z,91.17
2018-02-05T20:27:50.606Z,78.03
2018-02-05T20:30:18.078Z,83.37
2018-02-05T20:32:44.848Z,74.00
2018-02-05T20:35:12.027Z,97.97
2018-02-05T20:37:38.851Z,67.53
2018-02-05T20:40:05.778Z,71.95
2018-02-05T20:42:32.693Z,54.97
2018-02-05T20:44:59.524Z,73.80
2018-02-05T20:47:27.136Z,60.50
2018-02-05T20:49:54.023Z,68.68
2018-02-05T20:52:20.806Z,53.60
2018-02-05T20:54:47.585Z,56.50
2018-02-05T20:57:14.373Z,49.15
2018-02-05T20:59:41.365Z,66.37
2018-02-05T21:02:08.124Z,60.58
2018-02-05T21:04:36.385Z,53.37
2018-02-05T21:07:03.206Z,56.15
2018-02-05T21:09:29.961Z,65.85
2018-02-05T21:11:56.806Z,57.75
2018-02-05T21:14:23.648Z,62.40
2018-02-05T21:16:50.593Z,52.20
2018-02-05T21:19:17.818Z,53.83
2018-02-05T21:21:44.581Z,57.53
2018-02-05T21:24:11.350Z,51.37
2018-02-05T21:26:38.157Z,49.92
2018-02-05T21:29:04.953Z,51.30
2018-02-05T21:31:31.767Z,43.92
2018-02-05T21:33:59.547Z,46.33
2018-02-05T21:36:26.526Z,56.35
2018-02-05T21:38:53.335Z,39.60
2018-02-05T21:41:20.104Z,52.67
2018-02-05T21:43:48.445Z,44.15
2018-02-05T21:46:15.279Z,46.75
2018-02-05T21:48:42.039Z,60.78
2018-02-05T21:51:08.810Z,57.83
2018-02-05T21:53:35.850Z,47.38
2018-02-05T21:56:02.822Z,55.17
2018-02-05T21:58:29.612Z,59.92
2018-02-05T22:00:56.394Z,72.65
2018-02-05T22:03:23.250Z,67.03
2018-02-05T22:05:50.050Z,73.65
2018-02-05T22:08:16.872Z,74.75
2018-02-05T22:10:43.660Z,83.95
2018-02-05T22:13:21.195Z,77.60
2018-02-05T22:15:48.124Z,56.95
2018-02-05T22:18:15.619Z,57.25
2018-02-05T22:20:42.404Z,57.67
2018-02-05T22:23:09.624Z,57.42
2018-02-05T22:25:46.082Z,68.00
2018-02-05T22:28:18.258Z,60.17
2018-02-05T22:30:45.057Z,68.70
2018-02-05T22:33:11.861Z,69.93
2018-02-05T22:35:38.656Z,54.42
2018-02-05T22:38:05.454Z,53.10
2018-02-05T22:40:32.203Z,51.45
2018-02-05T22:42:58.985Z,55.35
2018-02-05T22:45:26.251Z,59.92
2018-02-05T22:47:53.016Z,72.07
2018-02-05T22:50:19.917Z,83.70
2018-02-05T22:52:46.719Z,89.97
2018-02-05T22:55:28.141Z,105.18
2018-02-05T22:57:55.112Z,88.43
2018-02-05T23:00:21.902Z,89.15
2018-02-05T23:02:48.703Z,118.35
2018-02-05T23:05:15.488Z,142.60
2018-02-05T23:07:42.249Z,126.68
2018-02-05T23:10:09.157Z,129.73
2018-02-05T23:12:35.940Z,112.05
2018-02-05T23:17:53.330Z,119.80
2018-02-05T23:20:20.096Z,100.57
2018-02-05T23:22:46.890Z,100.70
2018-02-05T23:25:23.706Z,106.95
2018-02-05T23:27:50.495Z,87.45
2018-02-05T23:30:17.265Z,99.95
2018-02-05T23:32:44.006Z,111.07
2018-02-05T23:35:10.769Z,92.72
2018-02-05T23:37:37.709Z,101.75
2018-02-05T23:40:04.599Z,79.57
2018-02-05T23:42:31.365Z,64.25
2018-02-05T23:44:58.174Z,90.93
2018-02-05T23:47:28.161Z,96.18
2018-02-05T23:49:54.959Z,121.07
2018-02-05T23:52:22.666Z,113.35
2018-02-05T23:54:49.450Z,93.62
2018-02-05T23:57:16.207Z,72.93
2018-02-05T23:59:43.017Z,84.00
